sensor_id;sensor_type;location;lat;lon;timestamp;P1;durP1;ratioP1;P2;durP2;ratioP2
75038;SDS011;63609;49.992;14.512;2023-04-25T00:03:31;5.38;;;2.10;;
75038;SDS011;63609;49.992;14.512;2023-04-25T00:05:59;4.35;;;2.70;;
75038;SDS011;63609;49.992;14.512;2023-04-25T00:08:30;3.90;;;1.95;;
75038;SDS011;63609;49.992;14.512;2023-04-25T00:10:57;7.00;;;2.13;;
75038;SDS011;63609;49.992;14.512;2023-04-25T00:13:25;3.42;;;2.00;;
75038;SDS011;63609;49.992;14.512;2023-04-25T00:15:53;4.57;;;2.03;;
75038;SDS011;63609;49.992;14.512;2023-04-25T00:18:20;3.30;;;1.15;;
75038;SDS011;63609;49.992;14.512;2023-04-25T00:20:47;5.40;;;2.63;;
75038;SDS011;63609;49.992;14.512;2023-04-25T00:23:15;6.03;;;2.42;;
75038;SDS011;63609;49.992;14.512;2023-04-25T00:25:45;3.63;;;1.70;;
75038;SDS011;63609;49.992;14.512;2023-04-25T00:28:12;3.47;;;1.70;;
75038;SDS011;63609;49.992;14.512;2023-04-25T00:30:40;4.07;;;1.92;;
75038;SDS011;63609;49.992;14.512;2023-04-25T00:33:08;3.45;;;1.90;;
75038;SDS011;63609;49.992;14.512;2023-04-25T00:35:35;3.53;;;2.13;;
75038;SDS011;63609;49.992;14.512;2023-04-25T00:38:02;4.50;;;2.38;;
75038;SDS011;63609;49.992;14.512;2023-04-25T00:40:29;3.72;;;2.13;;
75038;SDS011;63609;49.992;14.512;2023-04-25T00:42:56;4.80;;;2.30;;
75038;SDS011;63609;49.992;14.512;2023-04-25T00:45:23;4.35;;;2.13;;
75038;SDS011;63609;49.992;14.512;2023-04-25T00:47:54;4.20;;;2.38;;
75038;SDS011;63609;49.992;14.512;2023-04-25T00:50:22;7.50;;;2.47;;
75038;SDS011;63609;49.992;14.512;2023-04-25T00:52:50;3.97;;;2.22;;
75038;SDS011;63609;49.992;14.512;2023-04-25T00:55:17;4.70;;;2.67;;
75038;SDS011;63609;49.992;14.512;2023-04-25T00:57:44;4.35;;;2.58;;
75038;SDS011;63609;49.992;14.512;2023-04-25T01:00:12;5.63;;;2.90;;
75038;SDS011;63609;49.992;14.512;2023-04-25T01:02:40;6.28;;;2.72;;
75038;SDS011;63609;49.992;14.512;2023-04-25T01:05:09;5.97;;;2.65;;
75038;SDS011;63609;49.992;14.512;2023-04-25T01:07:36;7.35;;;3.17;;
75038;SDS011;63609;49.992;14.512;2023-04-25T01:10:04;5.60;;;2.92;;
75038;SDS011;63609;49.992;14.512;2023-04-25T01:12:32;6.35;;;3.25;;
75038;SDS011;63609;49.992;14.512;2023-04-25T01:15:00;5.65;;;3.13;;
75038;SDS011;63609;49.992;14.512;2023-04-25T01:17:28;4.63;;;2.88;;
75038;SDS011;63609;49.992;14.512;2023-04-25T01:19:55;6.30;;;3.15;;
75038;SDS011;63609;49.992;14.512;2023-04-25T01:22:23;6.18;;;3.10;;
75038;SDS011;63609;49.992;14.512;2023-04-25T01:24:50;7.32;;;4.18;;
75038;SDS011;63609;49.992;14.512;2023-04-25T01:27:17;8.52;;;4.90;;
75038;SDS011;63609;49.992;14.512;2023-04-25T01:29:45;9.65;;;4.13;;
75038;SDS011;63609;49.992;14.512;2023-04-25T01:32:13;10.32;;;5.55;;
75038;SDS011;63609;49.992;14.512;2023-04-25T01:34:41;12.07;;;5.50;;
75038;SDS011;63609;49.992;14.512;2023-04-25T01:37:09;12.45;;;5.03;;
75038;SDS011;63609;49.992;14.512;2023-04-25T01:39:36;7.57;;;3.83;;
75038;SDS011;63609;49.992;14.512;2023-04-25T01:42:03;7.97;;;3.63;;
75038;SDS011;63609;49.992;14.512;2023-04-25T01:44:30;6.38;;;3.30;;
75038;SDS011;63609;49.992;14.512;2023-04-25T01:46:57;7.93;;;4.03;;
75038;SDS011;63609;49.992;14.512;2023-04-25T01:49:25;6.40;;;3.50;;
75038;SDS011;63609;49.992;14.512;2023-04-25T01:51:52;6.57;;;3.83;;
75038;SDS011;63609;49.992;14.512;2023-04-25T01:54:20;11.13;;;3.50;;
75038;SDS011;63609;49.992;14.512;2023-04-25T01:56:50;6.75;;;3.78;;
75038;SDS011;63609;49.992;14.512;2023-04-25T01:59:19;6.80;;;3.28;;
75038;SDS011;63609;49.992;14.512;2023-04-25T02:01:58;8.00;;;3.65;;
75038;SDS011;63609;49.992;14.512;2023-04-25T02:04:30;7.10;;;3.80;;
75038;SDS011;63609;49.992;14.512;2023-04-25T02:06:57;7.13;;;3.60;;
75038;SDS011;63609;49.992;14.512;2023-04-25T02:09:33;7.95;;;3.72;;
75038;SDS011;63609;49.992;14.512;2023-04-25T02:12:04;10.60;;;3.90;;
75038;SDS011;63609;49.992;14.512;2023-04-25T02:14:52;9.35;;;3.83;;
75038;SDS011;63609;49.992;14.512;2023-04-25T02:17:34;4.72;;;3.08;;
75038;SDS011;63609;49.992;14.512;2023-04-25T02:20:01;8.27;;;3.03;;
75038;SDS011;63609;49.992;14.512;2023-04-25T02:22:29;5.78;;;3.58;;
75038;SDS011;63609;49.992;14.512;2023-04-25T02:24:57;7.60;;;3.78;;
75038;SDS011;63609;49.992;14.512;2023-04-25T02:27:24;6.60;;;3.47;;
75038;SDS011;63609;49.992;14.512;2023-04-25T02:29:51;7.57;;;3.83;;
75038;SDS011;63609;49.992;14.512;2023-04-25T02:32:18;7.90;;;3.45;;
75038;SDS011;63609;49.992;14.512;2023-04-25T02:34:46;6.60;;;3.60;;
75038;SDS011;63609;49.992;14.512;2023-04-25T02:37:13;8.57;;;3.72;;
75038;SDS011;63609;49.992;14.512;2023-04-25T02:39:41;6.82;;;3.40;;
75038;SDS011;63609;49.992;14.512;2023-04-25T02:42:08;7.28;;;3.60;;
75038;SDS011;63609;49.992;14.512;2023-04-25T02:44:35;8.10;;;3.80;;
75038;SDS011;63609;49.992;14.512;2023-04-25T02:47:04;6.63;;;3.88;;
75038;SDS011;63609;49.992;14.512;2023-04-25T02:49:32;7.95;;;3.83;;
75038;SDS011;63609;49.992;14.512;2023-04-25T02:51:59;8.30;;;3.85;;
75038;SDS011;63609;49.992;14.512;2023-04-25T02:54:26;5.57;;;3.50;;
75038;SDS011;63609;49.992;14.512;2023-04-25T02:56:54;8.18;;;3.72;;
75038;SDS011;63609;49.992;14.512;2023-04-25T02:59:26;8.57;;;3.72;;
75038;SDS011;63609;49.992;14.512;2023-04-25T03:01:53;8.05;;;3.72;;
75038;SDS011;63609;49.992;14.512;2023-04-25T03:04:19;8.38;;;3.83;;
75038;SDS011;63609;49.992;14.512;2023-04-25T03:06:47;6.90;;;3.45;;
75038;SDS011;63609;49.992;14.512;2023-04-25T03:09:14;7.20;;;3.88;;
75038;SDS011;63609;49.992;14.512;2023-04-25T03:11:42;8.05;;;3.83;;
75038;SDS011;63609;49.992;14.512;2023-04-25T03:14:11;9.75;;;3.70;;
75038;SDS011;63609;49.992;14.512;2023-04-25T03:16:39;7.53;;;3.60;;
75038;SDS011;63609;49.992;14.512;2023-04-25T03:19:06;6.38;;;3.58;;
75038;SDS011;63609;49.992;14.512;2023-04-25T03:21:34;6.45;;;3.63;;
75038;SDS011;63609;49.992;14.512;2023-04-25T03:24:02;7.10;;;3.72;;
75038;SDS011;63609;49.992;14.512;2023-04-25T03:26:30;7.25;;;3.95;;
75038;SDS011;63609;49.992;14.512;2023-04-25T03:28:58;7.80;;;3.97;;
75038;SDS011;63609;49.992;14.512;2023-04-25T03:31:26;8.02;;;3.90;;
75038;SDS011;63609;49.992;14.512;2023-04-25T03:33:53;6.50;;;3.53;;
75038;SDS011;63609;49.992;14.512;2023-04-25T03:36:22;6.75;;;4.05;;
75038;SDS011;63609;49.992;14.512;2023-04-25T03:38:50;9.65;;;4.22;;
75038;SDS011;63609;49.992;14.512;2023-04-25T03:41:19;8.55;;;3.97;;
75038;SDS011;63609;49.992;14.512;2023-04-25T03:43:57;11.18;;;4.63;;
75038;SDS011;63609;49.992;14.512;2023-04-25T03:46:26;7.95;;;4.47;;
75038;SDS011;63609;49.992;14.512;2023-04-25T03:48:53;9.60;;;4.72;;
75038;SDS011;63609;49.992;14.512;2023-04-25T03:51:25;8.10;;;4.25;;
75038;SDS011;63609;49.992;14.512;2023-04-25T03:53:52;6.75;;;4.18;;
75038;SDS011;63609;49.992;14.512;2023-04-25T03:56:28;8.52;;;4.50;;
75038;SDS011;63609;49.992;14.512;2023-04-25T03:59:04;11.23;;;4.63;;
75038;SDS011;63609;49.992;14.512;2023-04-25T04:01:31;8.90;;;4.55;;
75038;SDS011;63609;49.992;14.512;2023-04-25T04:03:58;9.05;;;4.45;;
75038;SDS011;63609;49.992;14.512;2023-04-25T04:06:26;11.88;;;5.28;;
75038;SDS011;63609;49.992;14.512;2023-04-25T04:09:01;8.98;;;5.03;;
75038;SDS011;63609;49.992;14.512;2023-04-25T04:11:37;8.32;;;4.40;;
75038;SDS011;63609;49.992;14.512;2023-04-25T04:14:06;9.30;;;4.60;;
75038;SDS011;63609;49.992;14.512;2023-04-25T04:16:36;7.97;;;4.43;;
75038;SDS011;63609;49.992;14.512;2023-04-25T04:19:03;11.77;;;4.72;;
75038;SDS011;63609;49.992;14.512;2023-04-25T04:21:31;10.15;;;5.03;;
75038;SDS011;63609;49.992;14.512;2023-04-25T04:24:01;10.63;;;4.55;;
75038;SDS011;63609;49.992;14.512;2023-04-25T04:26:36;8.55;;;4.57;;
75038;SDS011;63609;49.992;14.512;2023-04-25T04:29:12;10.45;;;4.25;;
75038;SDS011;63609;49.992;14.512;2023-04-25T04:31:57;7.88;;;4.45;;
75038;SDS011;63609;49.992;14.512;2023-04-25T04:34:24;9.40;;;4.50;;
75038;SDS011;63609;49.992;14.512;2023-04-25T04:36:52;8.40;;;3.90;;
75038;SDS011;63609;49.992;14.512;2023-04-25T04:39:19;9.77;;;4.72;;
75038;SDS011;63609;49.992;14.512;2023-04-25T04:41:58;8.98;;;4.70;;
75038;SDS011;63609;49.992;14.512;2023-04-25T04:44:53;8.82;;;4.25;;
75038;SDS011;63609;49.992;14.512;2023-04-25T04:47:46;7.45;;;4.07;;
75038;SDS011;63609;49.992;14.512;2023-04-25T04:50:42;6.57;;;3.42;;
75038;SDS011;63609;49.992;14.512;2023-04-25T04:53:22;14.13;;;4.80;;
75038;SDS011;63609;49.992;14.512;2023-04-25T04:56:09;9.13;;;4.53;;
75038;SDS011;63609;49.992;14.512;2023-04-25T04:58:55;6.63;;;3.47;;
75038;SDS011;63609;49.992;14.512;2023-04-25T05:01:44;11.02;;;4.35;;
75038;SDS011;63609;49.992;14.512;2023-04-25T05:04:16;11.35;;;4.57;;
75038;SDS011;63609;49.992;14.512;2023-04-25T05:07:08;9.65;;;4.85;;
75038;SDS011;63609;49.992;14.512;2023-04-25T05:10:01;10.65;;;5.40;;
75038;SDS011;63609;49.992;14.512;2023-04-25T05:12:59;7.72;;;3.85;;
75038;SDS011;63609;49.992;14.512;2023-04-25T05:15:35;10.10;;;4.63;;
75038;SDS011;63609;49.992;14.512;2023-04-25T05:18:21;11.30;;;5.18;;
75038;SDS011;63609;49.992;14.512;2023-04-25T05:21:06;10.25;;;4.97;;
75038;SDS011;63609;49.992;14.512;2023-04-25T05:23:38;8.85;;;4.55;;
75038;SDS011;63609;49.992;14.512;2023-04-25T05:26:20;8.90;;;4.65;;
75038;SDS011;63609;49.992;14.512;2023-04-25T05:29:13;5.82;;;3.10;;
75038;SDS011;63609;49.992;14.512;2023-04-25T05:31:58;8.10;;;4.43;;
75038;SDS011;63609;49.992;14.512;2023-04-25T05:34:25;9.48;;;4.32;;
75038;SDS011;63609;49.992;14.512;2023-04-25T05:36:59;7.97;;;4.10;;
75038;SDS011;63609;49.992;14.512;2023-04-25T05:39:28;8.13;;;4.63;;
75038;SDS011;63609;49.992;14.512;2023-04-25T05:42:14;8.60;;;4.70;;
75038;SDS011;63609;49.992;14.512;2023-04-25T05:45:01;7.70;;;4.20;;
75038;SDS011;63609;49.992;14.512;2023-04-25T05:47:36;6.32;;;3.35;;
75038;SDS011;63609;49.992;14.512;2023-04-25T05:50:11;11.65;;;4.90;;
75038;SDS011;63609;49.992;14.512;2023-04-25T05:53:02;9.27;;;4.35;;
75038;SDS011;63609;49.992;14.512;2023-04-25T05:55:32;6.03;;;3.85;;
75038;SDS011;63609;49.992;14.512;2023-04-25T05:58:05;11.63;;;5.45;;
75038;SDS011;63609;49.992;14.512;2023-04-25T06:00:34;11.25;;;5.70;;
75038;SDS011;63609;49.992;14.512;2023-04-25T06:03:01;8.73;;;4.32;;
75038;SDS011;63609;49.992;14.512;2023-04-25T06:05:28;11.80;;;5.00;;
75038;SDS011;63609;49.992;14.512;2023-04-25T06:07:55;10.10;;;4.03;;
75038;SDS011;63609;49.992;14.512;2023-04-25T06:10:23;7.15;;;3.92;;
75038;SDS011;63609;49.992;14.512;2023-04-25T06:12:51;7.82;;;4.80;;
75038;SDS011;63609;49.992;14.512;2023-04-25T06:15:20;6.93;;;3.72;;
75038;SDS011;63609;49.992;14.512;2023-04-25T06:17:54;7.90;;;3.85;;
75038;SDS011;63609;49.992;14.512;2023-04-25T06:20:21;7.82;;;4.32;;
75038;SDS011;63609;49.992;14.512;2023-04-25T06:22:52;9.70;;;4.50;;
75038;SDS011;63609;49.992;14.512;2023-04-25T06:25:25;6.35;;;3.70;;
75038;SDS011;63609;49.992;14.512;2023-04-25T06:27:54;6.53;;;3.65;;
75038;SDS011;63609;49.992;14.512;2023-04-25T06:30:21;6.57;;;3.40;;
75038;SDS011;63609;49.992;14.512;2023-04-25T06:32:59;8.95;;;4.07;;
75038;SDS011;63609;49.992;14.512;2023-04-25T06:35:28;6.90;;;4.28;;
75038;SDS011;63609;49.992;14.512;2023-04-25T06:37:55;6.80;;;3.97;;
75038;SDS011;63609;49.992;14.512;2023-04-25T06:40:23;8.45;;;4.22;;
75038;SDS011;63609;49.992;14.512;2023-04-25T06:42:50;10.57;;;5.15;;
75038;SDS011;63609;49.992;14.512;2023-04-25T06:45:49;9.05;;;4.28;;
75038;SDS011;63609;49.992;14.512;2023-04-25T06:48:19;6.43;;;4.10;;
75038;SDS011;63609;49.992;14.512;2023-04-25T06:50:51;10.30;;;4.63;;
75038;SDS011;63609;49.992;14.512;2023-04-25T06:53:19;9.68;;;4.72;;
75038;SDS011;63609;49.992;14.512;2023-04-25T06:55:52;6.25;;;3.33;;
75038;SDS011;63609;49.992;14.512;2023-04-25T06:58:21;8.52;;;4.45;;
75038;SDS011;63609;49.992;14.512;2023-04-25T07:00:50;7.38;;;4.32;;
75038;SDS011;63609;49.992;14.512;2023-04-25T07:03:19;10.00;;;4.60;;
75038;SDS011;63609;49.992;14.512;2023-04-25T07:05:48;7.20;;;4.38;;
75038;SDS011;63609;49.992;14.512;2023-04-25T07:08:15;8.80;;;4.53;;
75038;SDS011;63609;49.992;14.512;2023-04-25T07:10:42;8.57;;;4.65;;
75038;SDS011;63609;49.992;14.512;2023-04-25T07:13:13;4.82;;;2.97;;
75038;SDS011;63609;49.992;14.512;2023-04-25T07:15:41;9.65;;;4.90;;
75038;SDS011;63609;49.992;14.512;2023-04-25T07:18:10;7.25;;;3.70;;
75038;SDS011;63609;49.992;14.512;2023-04-25T07:20:37;8.30;;;4.45;;
75038;SDS011;63609;49.992;14.512;2023-04-25T07:23:05;7.45;;;3.97;;
75038;SDS011;63609;49.992;14.512;2023-04-25T07:25:32;9.20;;;4.18;;
75038;SDS011;63609;49.992;14.512;2023-04-25T07:28:00;7.03;;;4.18;;
75038;SDS011;63609;49.992;14.512;2023-04-25T07:30:27;8.98;;;5.28;;
75038;SDS011;63609;49.992;14.512;2023-04-25T07:32:54;9.40;;;5.43;;
75038;SDS011;63609;49.992;14.512;2023-04-25T07:35:22;8.82;;;4.72;;
75038;SDS011;63609;49.992;14.512;2023-04-25T07:37:51;6.90;;;4.57;;
75038;SDS011;63609;49.992;14.512;2023-04-25T07:40:19;8.40;;;4.75;;
75038;SDS011;63609;49.992;14.512;2023-04-25T07:42:51;7.22;;;3.88;;
75038;SDS011;63609;49.992;14.512;2023-04-25T07:45:37;8.38;;;4.80;;
75038;SDS011;63609;49.992;14.512;2023-04-25T07:48:06;8.65;;;4.05;;
75038;SDS011;63609;49.992;14.512;2023-04-25T07:50:36;7.40;;;3.97;;
75038;SDS011;63609;49.992;14.512;2023-04-25T07:53:03;9.60;;;4.63;;
75038;SDS011;63609;49.992;14.512;2023-04-25T07:55:35;9.88;;;4.75;;
75038;SDS011;63609;49.992;14.512;2023-04-25T07:58:11;8.65;;;4.10;;
75038;SDS011;63609;49.992;14.512;2023-04-25T08:00:41;6.40;;;3.55;;
75038;SDS011;63609;49.992;14.512;2023-04-25T08:03:35;7.63;;;4.15;;
75038;SDS011;63609;49.992;14.512;2023-04-25T08:06:07;7.47;;;4.22;;
75038;SDS011;63609;49.992;14.512;2023-04-25T08:08:44;8.32;;;4.63;;
75038;SDS011;63609;49.992;14.512;2023-04-25T08:11:16;8.23;;;4.85;;
75038;SDS011;63609;49.992;14.512;2023-04-25T08:13:43;7.63;;;4.82;;
75038;SDS011;63609;49.992;14.512;2023-04-25T08:16:11;8.43;;;5.15;;
75038;SDS011;63609;49.992;14.512;2023-04-25T08:18:39;7.28;;;3.88;;
75038;SDS011;63609;49.992;14.512;2023-04-25T08:21:06;10.23;;;5.05;;
75038;SDS011;63609;49.992;14.512;2023-04-25T08:23:35;10.00;;;5.43;;
75038;SDS011;63609;49.992;14.512;2023-04-25T08:26:19;8.57;;;4.80;;
75038;SDS011;63609;49.992;14.512;2023-04-25T08:28:48;7.32;;;4.30;;
75038;SDS011;63609;49.992;14.512;2023-04-25T08:31:16;8.57;;;4.63;;
75038;SDS011;63609;49.992;14.512;2023-04-25T08:33:53;7.32;;;4.38;;
75038;SDS011;63609;49.992;14.512;2023-04-25T08:36:30;6.80;;;4.05;;
75038;SDS011;63609;49.992;14.512;2023-04-25T08:39:18;8.68;;;4.40;;
75038;SDS011;63609;49.992;14.512;2023-04-25T08:42:06;7.70;;;3.95;;
75038;SDS011;63609;49.992;14.512;2023-04-25T08:44:37;5.90;;;3.13;;
75038;SDS011;63609;49.992;14.512;2023-04-25T08:47:05;9.57;;;4.25;;
75038;SDS011;63609;49.992;14.512;2023-04-25T08:49:40;5.75;;;3.78;;
75038;SDS011;63609;49.992;14.512;2023-04-25T08:52:13;6.30;;;4.00;;
75038;SDS011;63609;49.992;14.512;2023-04-25T08:54:42;4.45;;;2.78;;
75038;SDS011;63609;49.992;14.512;2023-04-25T08:57:15;5.32;;;3.05;;
75038;SDS011;63609;49.992;14.512;2023-04-25T08:59:45;6.50;;;3.50;;
75038;SDS011;63609;49.992;14.512;2023-04-25T09:02:14;7.40;;;3.90;;
75038;SDS011;63609;49.992;14.512;2023-04-25T09:04:48;6.18;;;3.17;;
75038;SDS011;63609;49.992;14.512;2023-04-25T09:07:16;6.10;;;3.50;;
75038;SDS011;63609;49.992;14.512;2023-04-25T09:09:49;5.35;;;2.67;;
75038;SDS011;63609;49.992;14.512;2023-04-25T09:12:19;7.00;;;4.30;;
75038;SDS011;63609;49.992;14.512;2023-04-25T09:18:04;5.78;;;3.67;;
75038;SDS011;63609;49.992;14.512;2023-04-25T09:20:43;7.78;;;4.50;;
75038;SDS011;63609;49.992;14.512;2023-04-25T09:23:30;5.10;;;3.13;;
75038;SDS011;63609;49.992;14.512;2023-04-25T09:25:57;7.47;;;3.55;;
75038;SDS011;63609;49.992;14.512;2023-04-25T09:28:25;5.43;;;2.88;;
75038;SDS011;63609;49.992;14.512;2023-04-25T09:30:57;4.35;;;2.45;;
75038;SDS011;63609;49.992;14.512;2023-04-25T09:33:32;4.68;;;2.85;;
75038;SDS011;63609;49.992;14.512;2023-04-25T09:38:49;5.75;;;3.30;;
75038;SDS011;63609;49.992;14.512;2023-04-25T09:41:22;5.78;;;3.60;;
75038;SDS011;63609;49.992;14.512;2023-04-25T09:43:57;7.43;;;3.97;;
75038;SDS011;63609;49.992;14.512;2023-04-25T09:46:33;8.45;;;3.90;;
75038;SDS011;63609;49.992;14.512;2023-04-25T09:49:06;7.65;;;4.18;;
75038;SDS011;63609;49.992;14.512;2023-04-25T09:51:58;9.80;;;5.40;;
75038;SDS011;63609;49.992;14.512;2023-04-25T09:54:42;7.95;;;4.38;;
75038;SDS011;63609;49.992;14.512;2023-04-25T09:59:45;8.10;;;4.53;;
75038;SDS011;63609;49.992;14.512;2023-04-25T10:04:50;8.05;;;4.70;;
75038;SDS011;63609;49.992;14.512;2023-04-25T10:07:34;7.40;;;4.13;;
75038;SDS011;63609;49.992;14.512;2023-04-25T10:10:08;4.25;;;3.05;;
75038;SDS011;63609;49.992;14.512;2023-04-25T10:12:45;7.57;;;4.07;;
75038;SDS011;63609;49.992;14.512;2023-04-25T10:15:25;6.80;;;3.60;;
75038;SDS011;63609;49.992;14.512;2023-04-25T10:17:54;6.40;;;3.90;;
75038;SDS011;63609;49.992;14.512;2023-04-25T10:20:23;6.78;;;4.07;;
75038;SDS011;63609;49.992;14.512;2023-04-25T10:22:50;6.03;;;3.95;;
75038;SDS011;63609;49.992;14.512;2023-04-25T10:27:54;6.85;;;3.63;;
75038;SDS011;63609;49.992;14.512;2023-04-25T10:30:31;6.78;;;3.92;;
75038;SDS011;63609;49.992;14.512;2023-04-25T10:33:02;6.70;;;3.50;;
75038;SDS011;63609;49.992;14.512;2023-04-25T10:35:57;7.72;;;3.83;;
75038;SDS011;63609;49.992;14.512;2023-04-25T10:38:25;6.15;;;3.22;;
75038;SDS011;63609;49.992;14.512;2023-04-25T10:41:03;8.07;;;4.32;;
75038;SDS011;63609;49.992;14.512;2023-04-25T10:48:55;7.07;;;4.80;;
75038;SDS011;63609;49.992;14.512;2023-04-25T10:51:27;7.10;;;4.47;;
75038;SDS011;63609;49.992;14.512;2023-04-25T10:54:16;6.63;;;3.97;;
75038;SDS011;63609;49.992;14.512;2023-04-25T10:56:44;7.15;;;4.25;;
75038;SDS011;63609;49.992;14.512;2023-04-25T10:59:12;7.25;;;4.78;;
75038;SDS011;63609;49.992;14.512;2023-04-25T11:01:53;4.78;;;3.20;;
75038;SDS011;63609;49.992;14.512;2023-04-25T11:04:22;4.80;;;2.72;;
75038;SDS011;63609;49.992;14.512;2023-04-25T11:09:40;4.88;;;3.03;;
75038;SDS011;63609;49.992;14.512;2023-04-25T11:12:08;5.50;;;2.97;;
75038;SDS011;63609;49.992;14.512;2023-04-25T11:14:36;4.45;;;2.90;;
75038;SDS011;63609;49.992;14.512;2023-04-25T11:17:03;3.65;;;2.25;;
75038;SDS011;63609;49.992;14.512;2023-04-25T11:19:32;4.63;;;2.88;;
75038;SDS011;63609;49.992;14.512;2023-04-25T11:21:59;3.72;;;2.50;;
75038;SDS011;63609;49.992;14.512;2023-04-25T11:24:32;5.72;;;3.10;;
75038;SDS011;63609;49.992;14.512;2023-04-25T11:27:02;5.93;;;3.42;;
75038;SDS011;63609;49.992;14.512;2023-04-25T11:29:30;7.80;;;4.43;;
75038;SDS011;63609;49.992;14.512;2023-04-25T11:31:59;5.95;;;3.53;;
75038;SDS011;63609;49.992;14.512;2023-04-25T11:34:28;5.97;;;3.72;;
75038;SDS011;63609;49.992;14.512;2023-04-25T11:37:00;8.07;;;5.32;;
75038;SDS011;63609;49.992;14.512;2023-04-25T11:39:29;7.45;;;4.72;;
75038;SDS011;63609;49.992;14.512;2023-04-25T11:41:56;10.55;;;5.00;;
75038;SDS011;63609;49.992;14.512;2023-04-25T11:44:23;8.70;;;4.75;;
75038;SDS011;63609;49.992;14.512;2023-04-25T11:46:51;8.65;;;5.10;;
75038;SDS011;63609;49.992;14.512;2023-04-25T11:49:19;10.40;;;5.60;;
75038;SDS011;63609;49.992;14.512;2023-04-25T11:51:46;10.18;;;5.40;;
75038;SDS011;63609;49.992;14.512;2023-04-25T11:54:15;10.20;;;4.93;;
75038;SDS011;63609;49.992;14.512;2023-04-25T11:56:43;9.48;;;5.63;;
75038;SDS011;63609;49.992;14.512;2023-04-25T11:59:11;9.25;;;5.43;;
75038;SDS011;63609;49.992;14.512;2023-04-25T12:01:40;8.05;;;5.05;;
75038;SDS011;63609;49.992;14.512;2023-04-25T12:04:24;7.70;;;4.30;;
75038;SDS011;63609;49.992;14.512;2023-04-25T12:06:52;8.23;;;5.13;;
75038;SDS011;63609;49.992;14.512;2023-04-25T12:09:21;7.25;;;4.47;;
75038;SDS011;63609;49.992;14.512;2023-04-25T12:11:56;8.30;;;4.20;;
75038;SDS011;63609;49.992;14.512;2023-04-25T12:14:27;5.50;;;3.33;;
75038;SDS011;63609;49.992;14.512;2023-04-25T12:16:56;3.78;;;2.80;;
75038;SDS011;63609;49.992;14.512;2023-04-25T12:19:25;7.20;;;3.47;;
75038;SDS011;63609;49.992;14.512;2023-04-25T12:24:25;3.38;;;2.17;;
75038;SDS011;63609;49.992;14.512;2023-04-25T12:29:30;4.30;;;2.10;;
75038;SDS011;63609;49.992;14.512;2023-04-25T12:32:13;3.80;;;2.20;;
75038;SDS011;63609;49.992;14.512;2023-04-25T12:34:41;5.50;;;2.90;;
75038;SDS011;63609;49.992;14.512;2023-04-25T12:37:08;7.03;;;3.38;;
75038;SDS011;63609;49.992;14.512;2023-04-25T12:39:35;3.58;;;2.20;;
75038;SDS011;63609;49.992;14.512;2023-04-25T12:42:05;3.35;;;2.05;;
75038;SDS011;63609;49.992;14.512;2023-04-25T12:47:02;3.83;;;1.90;;
75038;SDS011;63609;49.992;14.512;2023-04-25T12:49:30;3.28;;;2.10;;
75038;SDS011;63609;49.992;14.512;2023-04-25T12:51:57;5.53;;;2.70;;
75038;SDS011;63609;49.992;14.512;2023-04-25T12:54:24;2.78;;;2.00;;
75038;SDS011;63609;49.992;14.512;2023-04-25T12:56:52;2.72;;;1.83;;
75038;SDS011;63609;49.992;14.512;2023-04-25T12:59:20;3.72;;;2.05;;
75038;SDS011;63609;49.992;14.512;2023-04-25T13:01:47;3.65;;;2.08;;
75038;SDS011;63609;49.992;14.512;2023-04-25T13:04:15;5.05;;;2.40;;
75038;SDS011;63609;49.992;14.512;2023-04-25T13:06:42;5.18;;;2.15;;
75038;SDS011;63609;49.992;14.512;2023-04-25T13:09:10;4.03;;;2.30;;
75038;SDS011;63609;49.992;14.512;2023-04-25T13:11:58;3.53;;;2.33;;
75038;SDS011;63609;49.992;14.512;2023-04-25T13:14:25;3.80;;;2.17;;
75038;SDS011;63609;49.992;14.512;2023-04-25T13:16:54;4.22;;;2.63;;
75038;SDS011;63609;49.992;14.512;2023-04-25T13:19:24;5.28;;;2.40;;
75038;SDS011;63609;49.992;14.512;2023-04-25T13:21:52;5.75;;;3.72;;
75038;SDS011;63609;49.992;14.512;2023-04-25T13:24:19;8.55;;;3.90;;
75038;SDS011;63609;49.992;14.512;2023-04-25T13:26:46;4.22;;;2.53;;
75038;SDS011;63609;49.992;14.512;2023-04-25T13:29:13;4.38;;;2.80;;
75038;SDS011;63609;49.992;14.512;2023-04-25T13:31:41;7.00;;;3.15;;
75038;SDS011;63609;49.992;14.512;2023-04-25T13:34:08;4.38;;;2.63;;
75038;SDS011;63609;49.992;14.512;2023-04-25T13:36:42;4.55;;;2.72;;
75038;SDS011;63609;49.992;14.512;2023-04-25T13:39:10;6.38;;;2.97;;
75038;SDS011;63609;49.992;14.512;2023-04-25T13:41:37;5.47;;;3.13;;
75038;SDS011;63609;49.992;14.512;2023-04-25T13:44:04;4.60;;;2.78;;
75038;SDS011;63609;49.992;14.512;2023-04-25T13:46:31;4.43;;;2.72;;
75038;SDS011;63609;49.992;14.512;2023-04-25T13:49:12;5.18;;;3.00;;
75038;SDS011;63609;49.992;14.512;2023-04-25T13:51:39;4.95;;;2.85;;
75038;SDS011;63609;49.992;14.512;2023-04-25T13:54:07;5.93;;;3.38;;
75038;SDS011;63609;49.992;14.512;2023-04-25T13:56:34;6.03;;;3.13;;
75038;SDS011;63609;49.992;14.512;2023-04-25T13:59:01;6.10;;;3.63;;
75038;SDS011;63609;49.992;14.512;2023-04-25T14:01:28;8.48;;;2.40;;
75038;SDS011;63609;49.992;14.512;2023-04-25T14:03:57;4.35;;;2.53;;
75038;SDS011;63609;49.992;14.512;2023-04-25T14:06:24;6.53;;;2.80;;
75038;SDS011;63609;49.992;14.512;2023-04-25T14:08:52;6.55;;;3.63;;
75038;SDS011;63609;49.992;14.512;2023-04-25T14:11:20;4.93;;;2.60;;
75038;SDS011;63609;49.992;14.512;2023-04-25T14:13:47;5.50;;;2.63;;
75038;SDS011;63609;49.992;14.512;2023-04-25T14:16:16;6.93;;;4.00;;
75038;SDS011;63609;49.992;14.512;2023-04-25T14:18:43;4.72;;;2.95;;
75038;SDS011;63609;49.992;14.512;2023-04-25T14:21:10;5.13;;;2.90;;
75038;SDS011;63609;49.992;14.512;2023-04-25T14:23:37;4.05;;;2.25;;
75038;SDS011;63609;49.992;14.512;2023-04-25T14:26:05;3.75;;;2.42;;
75038;SDS011;63609;49.992;14.512;2023-04-25T14:28:32;5.68;;;2.42;;
75038;SDS011;63609;49.992;14.512;2023-04-25T14:31:02;5.55;;;3.20;;
75038;SDS011;63609;49.992;14.512;2023-04-25T14:33:30;6.65;;;2.50;;
75038;SDS011;63609;49.992;14.512;2023-04-25T14:36:00;4.43;;;2.50;;
75038;SDS011;63609;49.992;14.512;2023-04-25T14:38:27;8.18;;;3.42;;
75038;SDS011;63609;49.992;14.512;2023-04-25T14:40:54;4.78;;;2.40;;
75038;SDS011;63609;49.992;14.512;2023-04-25T14:43:21;5.03;;;2.65;;
75038;SDS011;63609;49.992;14.512;2023-04-25T14:45:48;3.80;;;2.65;;
75038;SDS011;63609;49.992;14.512;2023-04-25T14:48:16;5.57;;;3.20;;
75038;SDS011;63609;49.992;14.512;2023-04-25T14:50:46;5.32;;;2.60;;
75038;SDS011;63609;49.992;14.512;2023-04-25T14:53:13;5.47;;;2.45;;
75038;SDS011;63609;49.992;14.512;2023-04-25T14:55:40;4.30;;;2.38;;
75038;SDS011;63609;49.992;14.512;2023-04-25T14:58:07;4.72;;;2.35;;
75038;SDS011;63609;49.992;14.512;2023-04-25T15:00:34;5.38;;;2.55;;
75038;SDS011;63609;49.992;14.512;2023-04-25T15:03:02;5.35;;;2.72;;
75038;SDS011;63609;49.992;14.512;2023-04-25T15:05:34;2.95;;;1.98;;
75038;SDS011;63609;49.992;14.512;2023-04-25T15:08:02;3.53;;;2.03;;
75038;SDS011;63609;49.992;14.512;2023-04-25T15:10:31;3.47;;;1.80;;
75038;SDS011;63609;49.992;14.512;2023-04-25T15:12:58;4.40;;;2.10;;
75038;SDS011;63609;49.992;14.512;2023-04-25T15:15:27;2.45;;;1.60;;
75038;SDS011;63609;49.992;14.512;2023-04-25T15:17:55;4.40;;;2.30;;
75038;SDS011;63609;49.992;14.512;2023-04-25T15:20:25;5.55;;;2.95;;
75038;SDS011;63609;49.992;14.512;2023-04-25T15:22:54;4.45;;;2.20;;
75038;SDS011;63609;49.992;14.512;2023-04-25T15:25:24;3.60;;;2.00;;
75038;SDS011;63609;49.992;14.512;2023-04-25T15:27:52;4.78;;;2.83;;